createdAt,value
2018-12-29T00:00:04.942Z,2.91
2018-12-29T00:01:04.886Z,2.81
2018-12-29T00:02:04.877Z,2.73
2018-12-29T00:03:04.865Z,2.66
2018-12-29T00:04:04.856Z,2.66
2018-12-29T00:05:04.847Z,2.60
2018-12-29T00:06:04.875Z,2.65
2018-12-29T00:07:05.884Z,2.61
2018-12-29T00:08:04.813Z,2.76
2018-12-29T00:09:04.803Z,2.82
2018-12-29T00:10:04.834Z,2.86
2018-12-29T00:11:04.784Z,2.81
2018-12-29T00:12:04.821Z,2.89
2018-12-29T00:13:04.756Z,2.82
2018-12-29T00:14:04.748Z,2.65
2018-12-29T00:15:04.779Z,2.61
2018-12-29T00:16:04.755Z,2.68
2018-12-29T00:17:04.721Z,2.61
2018-12-29T00:18:04.766Z,2.69
2018-12-29T00:19:04.692Z,2.82
2018-12-29T00:20:04.723Z,2.84
2018-12-29T00:21:04.668Z,2.84
2018-12-29T00:22:04.660Z,2.94
2018-12-29T00:23:04.653Z,2.94
2018-12-29T00:24:04.639Z,2.82
2018-12-29T00:25:04.633Z,2.76
2018-12-29T00:26:04.660Z,2.76
2018-12-29T00:27:04.602Z,2.73
2018-12-29T00:28:04.598Z,2.73
2018-12-29T00:29:04.583Z,2.69
2018-12-29T00:30:04.571Z,2.57
2018-12-29T00:31:04.559Z,2.58
2018-12-29T00:32:04.593Z,2.60
2018-12-29T00:33:04.537Z,2.61
2018-12-29T00:34:04.524Z,2.71
2018-12-29T00:35:04.518Z,2.55
2018-12-29T00:36:04.547Z,2.51
2018-12-29T00:37:04.495Z,2.48
2018-12-29T00:38:04.545Z,2.48
2018-12-29T00:39:04.475Z,2.42
2018-12-29T00:40:04.464Z,2.42
2018-12-29T00:41:04.455Z,2.53
2018-12-29T00:42:04.441Z,2.42
2018-12-29T00:43:04.436Z,2.60
2018-12-29T00:44:04.470Z,2.60
2018-12-29T00:45:04.450Z,2.61
2018-12-29T00:46:04.398Z,2.60
2018-12-29T00:47:04.394Z,2.60
2018-12-29T00:48:04.387Z,2.58
2018-12-29T00:49:04.386Z,2.65
2018-12-29T00:50:04.355Z,2.58
2018-12-29T00:51:04.381Z,2.63
2018-12-29T00:52:04.329Z,2.68
2018-12-29T00:53:04.322Z,2.58
2018-12-29T00:54:04.315Z,2.61
2018-12-29T00:55:04.302Z,2.66
2018-12-29T00:56:04.325Z,2.75
2018-12-29T00:57:04.275Z,2.71
2018-12-29T00:58:04.265Z,2.71
2018-12-29T00:59:04.259Z,2.82
2018-12-29T01:00:04.285Z,2.84
2018-12-29T01:01:04.237Z,2.87
2018-12-29T01:02:04.232Z,2.86
2018-12-29T01:03:04.210Z,2.76
2018-12-29T01:04:04.202Z,2.82
2018-12-29T01:05:04.190Z,2.78
2018-12-29T01:06:04.239Z,2.72
2018-12-29T01:07:04.167Z,2.84
2018-12-29T01:08:04.201Z,2.68
2018-12-29T01:09:04.148Z,2.73
2018-12-29T01:10:04.134Z,2.69
2018-12-29T01:11:04.125Z,2.71
2018-12-29T01:12:04.153Z,2.72
2018-12-29T01:13:04.143Z,2.72
2018-12-29T01:14:04.092Z,2.65
2018-12-29T01:15:09.871Z,2.65
2018-12-29T01:16:05.072Z,2.60
2018-12-29T01:17:04.066Z,2.60
2018-12-29T01:18:04.049Z,2.65
2018-12-29T01:19:04.075Z,2.66
2018-12-29T01:20:04.030Z,2.65
2018-12-29T01:21:04.017Z,2.60
2018-12-29T01:22:04.006Z,2.54
2018-12-29T01:23:03.992Z,2.57
2018-12-29T01:24:03.985Z,2.60
2018-12-29T01:25:04.022Z,2.48
2018-12-29T01:26:03.958Z,2.55
2018-12-29T01:27:03.948Z,2.57
2018-12-29T01:28:03.945Z,2.55
2018-12-29T01:29:03.970Z,2.45
2018-12-29T01:30:03.919Z,2.55
2018-12-29T01:31:03.908Z,2.42
2018-12-29T01:32:03.901Z,2.51
2018-12-29T01:33:03.885Z,2.57
2018-12-29T01:34:03.920Z,2.57
2018-12-29T01:35:03.864Z,2.60
2018-12-29T01:36:03.882Z,2.60
2018-12-29T01:37:03.870Z,2.58
2018-12-29T01:38:03.831Z,2.63
2018-12-29T01:39:03.825Z,2.55
2018-12-29T01:40:03.854Z,2.65
2018-12-29T01:41:03.797Z,2.68
2018-12-29T01:42:03.790Z,2.86
2018-12-29T01:43:03.775Z,2.73
2018-12-29T01:44:03.810Z,2.71
2018-12-29T01:45:03.755Z,2.61
2018-12-29T01:46:03.787Z,2.69
2018-12-29T01:47:03.732Z,2.60
2018-12-29T01:48:03.722Z,2.68
2018-12-29T01:49:03.709Z,2.69
2018-12-29T01:50:03.701Z,2.68
2018-12-29T01:51:03.714Z,2.68
2018-12-29T01:52:03.719Z,2.66
2018-12-29T01:53:03.705Z,2.65
2018-12-29T01:54:03.657Z,2.63
2018-12-29T01:55:03.644Z,2.65
2018-12-29T01:56:03.639Z,2.57
2018-12-29T01:57:03.669Z,2.63
2018-12-29T01:58:03.618Z,2.72
2018-12-29T01:59:03.601Z,2.57
2018-12-29T02:00:03.592Z,2.63
2018-12-29T02:01:03.624Z,2.45
2018-12-29T02:02:03.574Z,2.40
2018-12-29T02:03:03.557Z,2.48
2018-12-29T02:04:03.590Z,2.58
2018-12-29T02:05:03.541Z,2.65
2018-12-29T02:06:03.525Z,2.60
2018-12-29T02:07:03.556Z,2.72
2018-12-29T02:08:03.503Z,2.69
2018-12-29T02:09:03.495Z,2.69
2018-12-29T02:10:03.488Z,2.72
2018-12-29T02:11:03.472Z,2.73
2018-12-29T02:12:03.470Z,2.78
2018-12-29T02:13:03.731Z,2.78
2018-12-29T02:14:03.437Z,2.65
2018-12-29T02:15:03.438Z,2.55
2018-12-29T02:16:03.415Z,2.48
2018-12-29T02:17:03.404Z,2.61
2018-12-29T02:18:03.394Z,2.65
2018-12-29T02:19:03.424Z,2.68
2018-12-29T02:20:03.391Z,2.65
2018-12-29T02:21:03.363Z,2.68
2018-12-29T02:22:03.352Z,2.66
2018-12-29T02:23:03.346Z,2.66
2018-12-29T02:24:03.346Z,2.71
2018-12-29T02:25:03.357Z,2.75
2018-12-29T02:26:03.312Z,2.82
2018-12-29T02:27:03.341Z,2.71
2018-12-29T02:28:03.290Z,2.60
2018-12-29T02:29:03.275Z,2.57
2018-12-29T02:30:03.271Z,2.61
2018-12-29T02:31:03.255Z,2.71
2018-12-29T02:32:03.242Z,2.69
2018-12-29T02:33:03.281Z,2.71
2018-12-29T02:34:03.220Z,2.78
2018-12-29T02:35:03.210Z,2.71
2018-12-29T02:36:03.215Z,2.68
2018-12-29T02:37:03.188Z,2.61
2018-12-29T02:38:03.177Z,2.69
2018-12-29T02:39:03.210Z,2.69
2018-12-29T02:40:03.158Z,2.65
2018-12-29T02:41:03.146Z,2.65
2018-12-29T02:42:03.139Z,2.71
2018-12-29T02:43:03.151Z,2.81
2018-12-29T02:44:03.116Z,2.84
2018-12-29T02:45:03.140Z,2.79
2018-12-29T02:46:03.132Z,2.86
2018-12-29T02:47:03.080Z,2.87
2018-12-29T02:48:03.069Z,2.82
2018-12-29T02:49:03.062Z,2.82
2018-12-29T02:50:03.056Z,2.93
2018-12-29T02:51:03.036Z,2.82
2018-12-29T02:52:03.070Z,2.82
2018-12-29T02:53:03.014Z,2.82
2018-12-29T02:54:03.011Z,2.86
2018-12-29T02:55:02.991Z,2.99
2018-12-29T02:56:03.058Z,3.00
2018-12-29T02:57:03.009Z,2.94
2018-12-29T02:58:02.956Z,2.87
2018-12-29T02:59:02.951Z,2.89
2018-12-29T03:00:02.977Z,2.89
2018-12-29T03:01:02.924Z,2.81
2018-12-29T03:02:02.921Z,2.81
2018-12-29T03:03:02.933Z,2.86
2018-12-29T03:04:02.901Z,2.93
2018-12-29T03:05:02.887Z,2.91
2018-12-29T03:06:02.874Z,2.82
2018-12-29T03:07:02.861Z,2.91
2018-12-29T03:08:02.881Z,2.96
2018-12-29T03:09:02.838Z,2.82
2018-12-29T03:10:02.829Z,2.84
2018-12-29T03:11:02.818Z,2.86
2018-12-29T03:12:02.841Z,2.84
2018-12-29T03:13:02.831Z,2.93
2018-12-29T03:14:02.783Z,2.94
2018-12-29T03:15:02.778Z,2.93
2018-12-29T03:16:02.770Z,2.94
2018-12-29T03:17:02.752Z,2.91
2018-12-29T03:18:02.774Z,2.87
2018-12-29T03:19:02.770Z,2.86
2018-12-29T03:20:02.721Z,2.84
2018-12-29T03:21:02.743Z,2.87
2018-12-29T03:22:02.700Z,2.93
2018-12-29T03:23:02.687Z,2.96
2018-12-29T03:24:02.675Z,2.97
2018-12-29T03:25:02.674Z,2.99
2018-12-29T03:26:02.654Z,2.99
2018-12-29T03:27:02.674Z,3.00
2018-12-29T03:28:02.666Z,3.02
2018-12-29T03:29:02.663Z,3.07
2018-12-29T03:30:02.614Z,3.15
2018-12-29T03:31:02.669Z,3.04
2018-12-29T03:32:02.587Z,3.08
2018-12-29T03:33:02.608Z,3.11
2018-12-29T03:34:02.572Z,3.08
2018-12-29T03:35:02.589Z,3.02
2018-12-29T03:36:02.587Z,3.12
2018-12-29T03:37:02.536Z,3.14
2018-12-29T03:38:02.522Z,3.20
2018-12-29T03:39:02.511Z,3.14
2018-12-29T03:40:02.521Z,3.07
2018-12-29T03:41:02.498Z,3.08
2018-12-29T03:42:02.517Z,3.22
2018-12-29T03:43:02.506Z,3.29
2018-12-29T03:44:02.464Z,3.30
2018-12-29T03:45:02.453Z,3.27
2018-12-29T03:46:02.433Z,3.23
2018-12-29T03:47:02.424Z,3.17
2018-12-29T03:48:02.424Z,3.12
2018-12-29T03:49:02.664Z,3.14
2018-12-29T03:50:02.392Z,3.12
2018-12-29T03:51:02.383Z,3.12
2018-12-29T03:52:02.370Z,3.12
2018-12-29T03:53:02.365Z,3.11
2018-12-29T03:54:02.348Z,3.11
2018-12-29T03:55:02.371Z,3.20
2018-12-29T03:56:02.327Z,3.18
2018-12-29T03:57:02.323Z,3.18
2018-12-29T03:58:02.307Z,3.12
2018-12-29T03:59:02.306Z,3.12
2018-12-29T04:00:02.283Z,3.22
2018-12-29T04:01:02.304Z,3.17
2018-12-29T04:02:02.265Z,3.08
2018-12-29T04:03:02.258Z,2.97
2018-12-29T04:04:02.275Z,2.97
2018-12-29T04:05:02.230Z,2.96
2018-12-29T04:06:02.258Z,2.94
2018-12-29T04:07:02.224Z,2.97
2018-12-29T04:08:02.194Z,2.90
2018-12-29T04:09:02.230Z,2.97
2018-12-29T04:10:02.173Z,2.91
2018-12-29T04:11:02.163Z,2.96
2018-12-29T04:12:02.186Z,2.94
2018-12-29T04:13:02.140Z,2.89
2018-12-29T04:14:02.130Z,2.93
2018-12-29T04:15:02.185Z,2.94
2018-12-29T04:16:02.109Z,2.93
2018-12-29T04:17:02.097Z,2.89
2018-12-29T04:18:02.128Z,2.87
2018-12-29T04:19:02.083Z,2.87
2018-12-29T04:20:02.068Z,2.81
2018-12-29T04:21:02.070Z,2.84
2018-12-29T04:22:02.047Z,2.82
2018-12-29T04:23:02.032Z,2.75
2018-12-29T04:24:02.062Z,2.71
2018-12-29T04:25:02.016Z,2.69
2018-12-29T04:26:01.997Z,2.60
2018-12-29T04:27:01.996Z,2.63
2018-12-29T04:28:01.979Z,2.68
2018-12-29T04:29:01.970Z,2.63
2018-12-29T04:30:02.012Z,2.65
2018-12-29T04:31:01.947Z,2.60
2018-12-29T04:32:01.977Z,2.53
2018-12-29T04:33:01.921Z,2.53
2018-12-29T04:34:01.941Z,2.53
2018-12-29T04:35:01.899Z,2.63
2018-12-29T04:36:01.890Z,2.71
2018-12-29T04:37:01.886Z,2.75
2018-12-29T04:38:01.867Z,2.66
2018-12-29T04:39:01.888Z,2.66
2018-12-29T04:40:01.853Z,2.61
2018-12-29T04:41:01.835Z,2.65
2018-12-29T04:42:01.827Z,2.63
2018-12-29T04:43:01.846Z,2.55
2018-12-29T04:44:01.809Z,2.60
2018-12-29T04:45:01.797Z,2.66
2018-12-29T04:46:05.242Z,2.66
2018-12-29T04:47:01.773Z,2.63
2018-12-29T04:48:01.762Z,2.61
2018-12-29T04:49:01.779Z,2.47
2018-12-29T04:50:01.780Z,2.50
2018-12-29T04:51:01.734Z,2.58
2018-12-29T04:52:01.727Z,2.66
2018-12-29T04:53:01.714Z,2.66
2018-12-29T04:54:01.695Z,2.65
2018-12-29T04:55:01.682Z,2.60
2018-12-29T04:56:01.731Z,2.63
2018-12-29T04:57:01.664Z,2.68
2018-12-29T04:58:01.656Z,2.65
2018-12-29T04:59:01.637Z,2.63
2018-12-29T05:00:01.634Z,2.66
2018-12-29T05:01:01.662Z,2.57
2018-12-29T05:02:01.636Z,2.65
2018-12-29T05:03:01.625Z,2.68
2018-12-29T05:04:01.587Z,2.66
2018-12-29T05:05:01.587Z,2.66
2018-12-29T05:06:01.606Z,2.72
2018-12-29T05:07:01.552Z,2.71
2018-12-29T05:08:01.544Z,2.79
2018-12-29T05:09:01.541Z,2.87
2018-12-29T05:10:01.535Z,2.96
2018-12-29T05:11:01.530Z,2.97
2018-12-29T05:12:01.535Z,2.99
2018-12-29T05:13:01.494Z,2.84
2018-12-29T05:14:01.481Z,2.86
2018-12-29T05:15:01.481Z,2.87
2018-12-29T05:16:01.517Z,2.84
2018-12-29T05:17:01.449Z,2.89
2018-12-29T05:18:01.473Z,2.81
2018-12-29T05:19:01.441Z,2.89
2018-12-29T05:20:01.435Z,2.93
2018-12-29T05:21:01.408Z,2.93
2018-12-29T05:22:01.393Z,2.87
2018-12-29T05:23:01.411Z,2.82
2018-12-29T05:24:01.378Z,2.86
2018-12-29T05:25:01.359Z,2.84
2018-12-29T05:26:01.390Z,2.82
2018-12-29T05:27:01.335Z,2.82
2018-12-29T05:28:01.352Z,2.86
2018-12-29T05:29:01.359Z,2.82
2018-12-29T05:30:01.331Z,2.86
2018-12-29T05:31:01.353Z,2.87
2018-12-29T05:32:01.278Z,2.86
2018-12-29T05:33:01.269Z,2.84
2018-12-29T05:34:01.262Z,2.84
2018-12-29T05:35:01.342Z,2.86
2018-12-29T05:36:01.302Z,2.82
2018-12-29T05:37:01.224Z,2.82
2018-12-29T05:38:01.213Z,2.82
2018-12-29T05:39:01.204Z,2.87
2018-12-29T05:40:01.200Z,2.84
2018-12-29T05:41:01.228Z,2.76
2018-12-29T05:42:01.171Z,2.81
2018-12-29T05:43:01.162Z,2.84
2018-12-29T05:44:01.152Z,2.87
2018-12-29T05:45:01.138Z,2.94
2018-12-29T05:46:01.160Z,3.02
2018-12-29T05:47:01.126Z,2.97
2018-12-29T05:48:01.106Z,2.96
2018-12-29T05:49:01.095Z,2.84
2018-12-29T05:50:01.089Z,2.84
2018-12-29T05:51:01.079Z,2.78
2018-12-29T05:52:01.099Z,2.89
2018-12-29T05:53:01.086Z,2.82
2018-12-29T05:54:01.044Z,2.84
2018-12-29T05:55:01.029Z,2.82
2018-12-29T05:56:01.026Z,2.84
2018-12-29T05:57:01.009Z,2.81
2018-12-29T05:58:01.029Z,2.81
2018-12-29T05:59:00.987Z,2.87
2018-12-29T06:00:00.992Z,2.79
2018-12-29T06:01:01.006Z,2.86
2018-12-29T06:02:00.962Z,2.90
2018-12-29T06:03:00.952Z,2.84
2018-12-29T06:04:00.938Z,2.87
2018-12-29T06:05:00.929Z,2.84
2018-12-29T06:06:00.909Z,2.84
2018-12-29T06:07:00.981Z,2.79
2018-12-29T06:08:00.921Z,2.79
2018-12-29T06:09:00.912Z,2.81
2018-12-29T06:10:00.877Z,2.76
2018-12-29T06:11:00.861Z,2.84
2018-12-29T06:12:00.848Z,2.90
2018-12-29T06:13:00.852Z,2.91
2018-12-29T06:14:00.826Z,3.02
2018-12-29T06:15:00.850Z,2.96
2018-12-29T06:16:00.804Z,3.02
2018-12-29T06:17:00.793Z,2.97
2018-12-29T06:18:00.785Z,2.96
2018-12-29T06:19:00.766Z,3.08
2018-12-29T06:20:00.757Z,3.00
2018-12-29T06:21:00.788Z,3.08
2018-12-29T06:22:00.741Z,2.97
2018-12-29T06:23:00.732Z,2.96
2018-12-29T06:24:00.715Z,2.96
2018-12-29T06:25:00.722Z,3.00
2018-12-29T06:26:00.707Z,3.12
2018-12-29T06:27:00.716Z,3.05
2018-12-29T06:28:00.673Z,3.00
2018-12-29T06:29:00.676Z,2.96
2018-12-29T06:30:00.653Z,2.96
2018-12-29T06:31:00.640Z,2.93
2018-12-29T06:32:00.629Z,3.05
2018-12-29T06:33:00.652Z,2.96
2018-12-29T06:34:00.607Z,2.96
2018-12-29T06:35:00.623Z,3.07
2018-12-29T06:36:00.592Z,3.11
2018-12-29T06:37:00.607Z,3.15
2018-12-29T06:38:00.588Z,2.97
2018-12-29T06:39:00.570Z,3.12
2018-12-29T06:40:00.585Z,3.07
2018-12-29T06:41:00.529Z,3.11
2018-12-29T06:42:00.596Z,3.04
2018-12-29T06:43:00.536Z,3.12
2018-12-29T06:44:00.499Z,3.17
2018-12-29T06:45:00.486Z,3.11
2018-12-29T06:46:00.482Z,3.17
2018-12-29T06:47:00.507Z,3.23
2018-12-29T06:48:00.453Z,3.25
2018-12-29T06:49:00.440Z,3.30
2018-12-29T06:50:00.437Z,3.32
2018-12-29T06:51:00.430Z,3.32
2018-12-29T06:52:00.409Z,3.25
2018-12-29T06:53:00.438Z,3.22
2018-12-29T06:54:00.386Z,3.25
2018-12-29T06:55:00.387Z,3.32
2018-12-29T06:56:00.371Z,3.25
2018-12-29T06:57:00.379Z,3.15
2018-12-29T06:58:00.343Z,3.12
2018-12-29T06:59:00.372Z,3.11
2018-12-29T07:00:00.358Z,3.07
2018-12-29T07:01:00.311Z,3.12
2018-12-29T07:02:00.301Z,3.26
2018-12-29T07:03:00.307Z,3.26
2018-12-29T07:04:00.293Z,3.29
2018-12-29T07:05:00.313Z,3.25
2018-12-29T07:06:00.264Z,3.26
2018-12-29T07:07:00.250Z,3.15
2018-12-29T07:08:00.242Z,3.22
2018-12-29T07:09:00.250Z,3.22
2018-12-29T07:10:00.278Z,3.14
2018-12-29T07:11:00.208Z,3.15
2018-12-29T07:12:00.203Z,3.12
2018-12-29T07:13:00.216Z,3.12
2018-12-29T07:14:00.176Z,3.12
2018-12-29T07:15:00.240Z,3.17
2018-12-29T07:16:00.164Z,3.15
2018-12-29T07:17:00.138Z,3.20
2018-12-29T07:18:00.130Z,3.26
2018-12-29T07:19:00.123Z,3.27
2018-12-29T07:20:00.164Z,3.30
2018-12-29T07:21:00.135Z,3.27
2018-12-29T07:22:00.078Z,3.32
2018-12-29T07:23:00.079Z,3.26
2018-12-29T07:24:00.074Z,3.23
2018-12-29T07:25:00.048Z,3.35
2018-12-29T07:26:00.061Z,3.30
2018-12-29T07:27:00.080Z,3.26
2018-12-29T07:28:00.029Z,3.29
2018-12-29T07:29:00.007Z,3.29
2018-12-29T07:30:00.013Z,3.29
2018-12-29T07:30:59.985Z,3.30
2018-12-29T07:31:59.987Z,3.26
2018-12-29T07:32:59.990Z,3.25
2018-12-29T07:33:59.955Z,3.33
2018-12-29T07:34:59.970Z,3.36
2018-12-29T07:35:59.929Z,3.30
2018-12-29T07:36:59.957Z,3.42
2018-12-29T07:37:59.910Z,3.32
2018-12-29T07:38:59.904Z,3.22
2018-12-29T07:39:59.923Z,3.36
2018-12-29T07:40:59.906Z,3.41
2018-12-29T07:41:59.876Z,3.29
2018-12-29T07:42:59.861Z,3.32
2018-12-29T07:43:59.843Z,3.44
2018-12-29T07:44:59.867Z,3.44
2018-12-29T07:45:59.822Z,3.46
2018-12-29T07:46:59.833Z,3.41
2018-12-29T07:47:59.802Z,3.42
2018-12-29T07:48:59.809Z,3.32
2018-12-29T07:49:59.778Z,3.36
2018-12-29T07:50:59.809Z,3.32
2018-12-29T07:51:59.756Z,3.27
2018-12-29T07:52:59.765Z,3.29
2018-12-29T07:53:59.746Z,3.41
2018-12-29T07:54:59.725Z,3.37
2018-12-29T07:55:59.723Z,3.46
2018-12-29T07:56:59.736Z,3.23
2018-12-29T07:57:59.694Z,3.29
2018-12-29T07:58:59.693Z,3.26
2018-12-29T07:59:59.673Z,3.26
2018-12-29T08:00:59.669Z,3.22
2018-12-29T08:01:59.652Z,3.12
2018-12-29T08:02:59.666Z,3.12
2018-12-29T08:03:59.627Z,3.32
2018-12-29T08:04:59.621Z,3.41
2018-12-29T08:05:59.619Z,3.49
2018-12-29T08:06:59.597Z,3.37
2018-12-29T08:07:59.632Z,3.30
2018-12-29T08:08:59.576Z,3.52
2018-12-29T08:09:59.567Z,3.55
2018-12-29T08:10:59.554Z,3.52
2018-12-29T08:11:59.544Z,3.51
2018-12-29T08:12:59.533Z,3.46
2018-12-29T08:13:59.555Z,3.48
2018-12-29T08:14:59.509Z,3.49
2018-12-29T08:15:59.501Z,3.33
2018-12-29T08:16:59.486Z,3.42
2018-12-29T08:17:59.508Z,3.41
2018-12-29T08:18:59.502Z,3.36
2018-12-29T08:19:59.452Z,3.52
2018-12-29T08:20:59.445Z,3.48
2018-12-29T08:21:59.469Z,3.45
2018-12-29T08:22:59.427Z,3.56
2018-12-29T08:23:59.446Z,3.59
2018-12-29T08:24:59.404Z,3.60
2018-12-29T08:25:59.404Z,3.69
2018-12-29T08:26:59.379Z,3.60
2018-12-29T08:27:59.366Z,3.54
2018-12-29T08:28:59.358Z,3.59
2018-12-29T08:29:59.376Z,3.60
2018-12-29T08:30:59.335Z,3.56
2018-12-29T08:31:59.327Z,3.59
2018-12-29T08:32:59.315Z,3.64
2018-12-29T08:33:59.320Z,3.70
2018-12-29T08:34:59.295Z,3.59
2018-12-29T08:35:59.340Z,3.69
2018-12-29T08:36:59.270Z,3.74
2018-12-29T08:37:59.261Z,3.74
2018-12-29T08:38:59.252Z,3.96
2018-12-29T08:39:59.237Z,3.88
2018-12-29T08:40:59.230Z,4.00
2018-12-29T08:41:59.247Z,3.98
2018-12-29T08:42:59.208Z,3.85
2018-12-29T08:43:59.224Z,3.91
2018-12-29T08:44:59.188Z,3.87
2018-12-29T08:45:59.178Z,3.81
2018-12-29T08:47:04.480Z,3.76
2018-12-29T08:48:00.161Z,3.81
2018-12-29T08:48:59.146Z,3.78
2018-12-29T08:49:59.204Z,3.78
2018-12-29T08:50:59.117Z,3.72
2018-12-29T08:51:59.150Z,3.64
2018-12-29T08:52:59.100Z,3.78
2018-12-29T08:53:59.086Z,3.91
2018-12-29T08:54:59.081Z,3.87
2018-12-29T08:55:59.100Z,3.90
2018-12-29T08:56:59.054Z,3.87
2018-12-29T08:57:59.045Z,3.82
2018-12-29T08:58:59.058Z,3.88
2018-12-29T08:59:59.019Z,3.85
2018-12-29T09:00:59.049Z,3.88
2018-12-29T09:01:59.016Z,3.94
2018-12-29T09:02:58.993Z,3.98
2018-12-29T09:03:59.088Z,4.13
2018-12-29T09:04:58.995Z,4.09
2018-12-29T09:05:58.985Z,4.24
2018-12-29T09:06:58.995Z,4.18
2018-12-29T09:07:58.949Z,4.20
2018-12-29T09:08:58.998Z,4.21
2018-12-29T09:09:58.958Z,4.39
2018-12-29T09:10:58.910Z,4.24
2018-12-29T09:11:58.891Z,4.21
2018-12-29T09:12:58.965Z,4.36
2018-12-29T09:13:58.870Z,4.38
2018-12-29T09:14:58.940Z,4.38
2018-12-29T09:15:58.917Z,4.31
2018-12-29T09:16:58.842Z,4.34
2018-12-29T09:17:58.832Z,4.30
2018-12-29T09:18:58.868Z,4.21
2018-12-29T09:19:58.814Z,4.38
2018-12-29T09:20:58.799Z,4.42
2018-12-29T09:21:58.784Z,4.51
2018-12-29T09:22:58.770Z,4.51
2018-12-29T09:23:58.765Z,4.61
2018-12-29T09:24:58.793Z,4.60
2018-12-29T09:25:58.757Z,4.63
2018-12-29T09:26:58.753Z,4.64
2018-12-29T09:27:58.752Z,4.57
2018-12-29T09:28:58.732Z,4.48
2018-12-29T09:29:58.698Z,4.39
2018-12-29T09:30:58.713Z,4.53
2018-12-29T09:31:58.681Z,4.54
2018-12-29T09:32:58.677Z,4.54
2018-12-29T09:33:58.707Z,4.56
2018-12-29T09:34:58.686Z,4.57
2018-12-29T09:35:58.639Z,4.61
2018-12-29T09:36:58.627Z,4.67
2018-12-29T09:37:58.635Z,4.63
2018-12-29T09:38:58.605Z,4.59
2018-12-29T09:39:58.625Z,4.63
2018-12-29T09:40:58.591Z,4.74
2018-12-29T09:41:58.564Z,4.72
2018-12-29T09:42:58.578Z,4.86
2018-12-29T09:43:58.566Z,5.03
2018-12-29T09:44:58.616Z,5.01
2018-12-29T09:45:58.543Z,4.89
2018-12-29T09:46:58.516Z,4.98
2018-12-29T09:47:58.529Z,5.00
2018-12-29T09:48:58.507Z,5.03
2018-12-29T09:49:58.535Z,5.03
2018-12-29T09:50:58.467Z,5.01
2018-12-29T09:51:58.466Z,5.01
2018-12-29T09:52:58.481Z,5.04
2018-12-29T09:53:58.449Z,5.11
2018-12-29T09:54:58.427Z,5.09
2018-12-29T09:55:58.488Z,5.12
2018-12-29T09:56:58.424Z,4.86
2018-12-29T09:57:58.394Z,4.83
2018-12-29T09:58:58.389Z,4.83
2018-12-29T09:59:58.383Z,4.83
2018-12-29T10:00:58.370Z,4.86
2018-12-29T10:01:58.393Z,4.85
2018-12-29T10:02:58.341Z,4.71
2018-12-29T10:03:58.335Z,4.67
2018-12-29T10:04:58.366Z,4.67
2018-12-29T10:05:58.309Z,4.75
2018-12-29T10:06:58.303Z,4.74
2018-12-29T10:07:58.297Z,4.79
2018-12-29T10:08:58.273Z,4.85
2018-12-29T10:09:58.275Z,4.89
2018-12-29T10:10:58.307Z,4.88
2018-12-29T10:11:58.244Z,4.98
2018-12-29T10:12:58.233Z,5.04
2018-12-29T10:13:58.282Z,5.00
2018-12-29T10:14:58.218Z,5.01
2018-12-29T10:15:58.213Z,4.96
2018-12-29T10:16:58.258Z,5.01
2018-12-29T10:17:58.179Z,5.03
2018-12-29T10:18:58.166Z,5.12
2018-12-29T10:19:58.158Z,5.15
2018-12-29T10:20:58.155Z,5.18
2018-12-29T10:21:58.145Z,5.24
2018-12-29T10:22:58.160Z,5.09
2018-12-29T10:23:58.119Z,5.16
2018-12-29T10:24:58.126Z,5.16
2018-12-29T10:25:58.109Z,5.16
2018-12-29T10:26:58.089Z,5.21
2018-12-29T10:27:58.159Z,5.19
2018-12-29T10:28:58.078Z,5.25
2018-12-29T10:29:58.071Z,5.33
2018-12-29T10:30:58.044Z,5.19
2018-12-29T10:31:58.067Z,5.18
2018-12-29T10:32:58.044Z,5.18
2018-12-29T10:33:58.315Z,5.25
2018-12-29T10:34:58.038Z,5.15
2018-12-29T10:35:58.011Z,5.18
2018-12-29T10:36:57.974Z,5.09
2018-12-29T10:37:57.969Z,5.04
2018-12-29T10:38:57.960Z,5.14
2018-12-29T10:39:57.984Z,5.16
2018-12-29T10:40:57.942Z,5.18
2018-12-29T10:41:57.944Z,5.32
2018-12-29T10:42:57.915Z,5.32
2018-12-29T10:43:57.912Z,5.34
2018-12-29T10:44:57.898Z,5.34
2018-12-29T10:45:57.922Z,5.27
2018-12-29T10:46:57.865Z,5.27
2018-12-29T10:47:57.877Z,5.30
2018-12-29T10:48:57.844Z,5.22
2018-12-29T10:49:57.847Z,5.29
2018-12-29T10:50:57.829Z,5.30
2018-12-29T10:51:57.846Z,5.30
2018-12-29T10:52:57.812Z,5.33
2018-12-29T10:53:57.811Z,5.37
2018-12-29T10:54:57.802Z,5.44
2018-12-29T10:55:57.791Z,5.39
2018-12-29T10:56:57.764Z,5.39
2018-12-29T10:57:57.823Z,5.30
2018-12-29T10:58:57.760Z,5.33
2018-12-29T10:59:57.771Z,5.36
2018-12-29T11:00:57.732Z,5.33
2018-12-29T11:01:57.716Z,5.14
2018-12-29T11:02:57.742Z,5.24
2018-12-29T11:03:57.694Z,5.25
2018-12-29T11:04:57.677Z,5.24
2018-12-29T11:05:57.662Z,5.22
2018-12-29T11:06:57.664Z,5.22
2018-12-29T11:07:57.650Z,5.19
2018-12-29T11:08:57.656Z,5.27
2018-12-29T11:09:57.618Z,5.18
2018-12-29T11:10:57.612Z,5.24
2018-12-29T11:11:57.651Z,5.39
2018-12-29T11:12:57.608Z,5.36
2018-12-29T11:13:57.619Z,5.36
2018-12-29T11:14:57.560Z,5.48
2018-12-29T11:15:57.564Z,5.52
2018-12-29T11:16:57.556Z,5.54
2018-12-29T11:17:57.531Z,5.66
2018-12-29T11:18:57.557Z,5.55
2018-12-29T11:19:57.541Z,5.59
2018-12-29T11:20:57.560Z,5.66
2018-12-29T11:21:57.495Z,5.66
2018-12-29T11:22:57.480Z,5.65
2018-12-29T11:23:57.468Z,5.51
2018-12-29T11:24:57.456Z,5.54
2018-12-29T11:25:57.446Z,5.52
2018-12-29T11:26:57.465Z,5.69
2018-12-29T11:27:57.433Z,5.76
2018-12-29T11:28:57.425Z,5.73
2018-12-29T11:29:57.403Z,5.77
2018-12-29T11:30:57.395Z,5.70
2018-12-29T11:31:57.409Z,5.70
2018-12-29T11:32:57.421Z,5.72
2018-12-29T11:33:57.366Z,5.73
2018-12-29T11:34:57.401Z,5.62
2018-12-29T11:35:57.370Z,5.70
2018-12-29T11:36:57.340Z,5.65
2018-12-29T11:37:57.318Z,5.65
2018-12-29T11:38:57.311Z,5.57
2018-12-29T11:39:57.352Z,5.61
2018-12-29T11:40:57.292Z,5.66
2018-12-29T11:41:57.280Z,5.66
2018-12-29T11:42:57.294Z,5.59
2018-12-29T11:43:57.282Z,5.62
2018-12-29T11:44:57.243Z,5.66
2018-12-29T11:45:57.282Z,5.61
2018-12-29T11:46:57.223Z,5.57
2018-12-29T11:47:57.210Z,5.59
2018-12-29T11:48:57.223Z,5.65
2018-12-29T11:49:57.252Z,5.69
2018-12-29T11:50:57.189Z,5.72
2018-12-29T11:51:57.188Z,5.72
2018-12-29T11:52:57.158Z,5.66
2018-12-29T11:53:57.174Z,5.65
2018-12-29T11:54:57.141Z,5.66
2018-12-29T11:55:57.187Z,5.55
2018-12-29T11:56:57.147Z,5.65
2018-12-29T11:57:57.108Z,5.70
2018-12-29T11:58:57.091Z,5.79
2018-12-29T11:59:57.106Z,5.84
2018-12-29T12:00:57.072Z,5.87
2018-12-29T12:01:57.091Z,5.80
2018-12-29T12:02:57.058Z,5.90
2018-12-29T12:03:57.041Z,5.87
2018-12-29T12:04:57.022Z,5.85
2018-12-29T12:05:57.021Z,5.90
2018-12-29T12:06:57.003Z,5.82
2018-12-29T12:07:57.020Z,5.84
2018-12-29T12:08:57.017Z,5.84
2018-12-29T12:09:57.004Z,5.77
2018-12-29T12:10:56.971Z,5.84
2018-12-29T12:11:56.955Z,5.88
2018-12-29T12:12:56.996Z,6.02
2018-12-29T12:13:56.941Z,6.03
2018-12-29T12:14:56.921Z,6.09
2018-12-29T12:15:56.915Z,6.03
2018-12-29T12:16:56.902Z,5.97
2018-12-29T12:17:57.655Z,5.97
2018-12-29T12:18:56.983Z,6.12
2018-12-29T12:19:56.868Z,6.09
2018-12-29T12:20:56.906Z,6.18
2018-12-29T12:21:56.843Z,6.15
2018-12-29T12:22:56.837Z,6.19
2018-12-29T12:23:56.827Z,6.21
2018-12-29T12:24:56.813Z,6.13
2018-12-29T12:25:56.813Z,6.13
2018-12-29T12:26:56.937Z,6.06
2018-12-29T12:27:56.781Z,6.15
2018-12-29T12:28:56.819Z,6.19
2018-12-29T12:29:56.776Z,6.24
2018-12-29T12:30:56.779Z,6.40
2018-12-29T12:31:56.739Z,6.34
2018-12-29T12:32:56.782Z,6.47
2018-12-29T12:33:56.714Z,6.52
2018-12-29T12:34:56.699Z,6.46
2018-12-29T12:35:56.692Z,6.35
2018-12-29T12:36:56.743Z,6.42
2018-12-29T12:37:56.737Z,6.32
2018-12-29T12:38:56.664Z,6.43
2018-12-29T12:39:56.648Z,6.38
2018-12-29T12:40:56.654Z,6.35
2018-12-29T12:41:56.630Z,6.35
2018-12-29T12:42:56.625Z,6.40
2018-12-29T12:43:56.653Z,6.34
2018-12-29T12:44:56.633Z,6.42
2018-12-29T12:45:56.582Z,6.43
2018-12-29T12:46:56.606Z,6.49
2018-12-29T12:47:56.557Z,6.56
2018-12-29T12:48:56.551Z,6.65
2018-12-29T12:49:56.586Z,6.67
2018-12-29T12:50:56.542Z,6.63
2018-12-29T12:51:56.517Z,6.63
2018-12-29T12:52:56.512Z,6.64
2018-12-29T12:53:56.554Z,6.61
2018-12-29T12:54:56.525Z,6.65
2018-12-29T12:55:56.474Z,6.65
2018-12-29T12:56:56.459Z,6.61
2018-12-29T12:57:56.461Z,6.75
2018-12-29T12:58:56.439Z,6.78
2018-12-29T12:59:56.434Z,6.81
2018-12-29T13:00:56.473Z,6.70
2018-12-29T13:01:56.415Z,6.67
2018-12-29T13:02:56.408Z,6.79
2018-12-29T13:03:56.382Z,6.79
2018-12-29T13:04:56.374Z,6.78
2018-12-29T13:05:56.363Z,6.71
2018-12-29T13:06:56.407Z,6.75
2018-12-29T13:07:56.374Z,6.89
2018-12-29T13:08:56.380Z,6.86
2018-12-29T13:09:56.348Z,6.93
2018-12-29T13:10:56.320Z,7.00
2018-12-29T13:11:56.371Z,6.92
2018-12-29T13:12:56.301Z,6.89
2018-12-29T13:13:56.333Z,6.83
2018-12-29T13:14:56.264Z,6.79
2018-12-29T13:15:56.272Z,6.74
2018-12-29T13:16:56.251Z,6.71
2018-12-29T13:17:56.282Z,6.82